Rock Springs, WY

4:58 AM MDT on March 28, 2017 (GMT -0600)
College Hill | | Change Station
Active Advisory: Winter Weather Advisory

Elev 6488 ft 41.59 °N, 109.23 °W | Updated 11 minutes ago

Snow
Snow
34.1 °F
Feels Like 24 °F
N
16.0
Wind Variable Wind from NNW
Gusts 20.0 mph

Today
High -- | Low -- °F
--% Chance of Precip.
Yesterday
High -- | Low -- °F
Precip. -- in
Pressure 29.91 in
Visibility 10.0 miles
Clouds Mostly Cloudy 900 ft
Overcast 1800 ft
Windchill 24 °F
Dew Point 20 °F
Humidity 57%
Rainfall 0.02 in
Snow Depth Not available.
7:06 AM 7:38 PM
New Moon, 0% visible
METAR KRKS 281054Z AUTO 33012KT 10SM BKN009 OVC018 02/00 A2993 RMK AO2 UPB0955E21B37E51SNE0955 SLP127 P0000 T00170000 TSNO
Pressure 29.91 in
Visibility 10.0 miles
Clouds Mostly Cloudy 900 ft
Overcast 1800 ft
Windchill 24 °F
Dew Point 20 °F
Humidity 57%
Rainfall 0.02 in
Snow Depth Not available.
7:06 AM 7:38 PM
New Moon, 0% visible
METAR KRKS 281054Z AUTO 33012KT 10SM BKN009 OVC018 02/00 A2993 RMK AO2 UPB0955E21B37E51SNE0955 SLP127 P0000 T00170000 TSNO

Get Your Daily Forecast Email!

Thanks for signing up!

Be on the lookout for a verification email in your inbox.

You'll start receiving severe weather alerts in your inbox..

×

10-Day Weather Forecast

Almanac

Astronomy

Mar. 28, 2017 Rise Set
Actual Time
Civil Twilight
Nautical Twilight
Astronomical Twilight
Moon
Length of Visible Light
Length of Day
Tomorrow will be .
, % of the Moon is Illuminated

Today's Extremes

State Highs State Lows

Community

WunderPhotos

Upload Photos

1,962,540 photos uploaded!

WunderBlog® & News

Nearby

Air Quality

  Air Quality AQ Index Pollutant
Not available.

Snow Depth

Station Depth Elevation

Earthquake Activity

City Distance Mag. Time & Date
Minimum magnitude displayed is 2.5.

Earthquake Activity

City Distance Mag. Time & Date
Minimum magnitude displayed is 2.5.

Coastal Water Temperatures

Place Temperature

Stations

Nearby Weather Stations

Station Location Temp. Windchill Dew Point Humidity Wind Precip. Elev Updated Type
                   

Watches & Warnings

Winter Weather Advisory
Issued: 2:06 AM MDT Mar. 28, 2017 – National Weather Service

... Winter Weather Advisory remains in effect until 6 PM MDT this
evening...

* timing... snow showers will continue at times today; mainly above
7000 feet.

* Total snowfall... will range from 2 to 4 inches, with the
highest amounts above 7000 feet.

* Main impact... roads, including Interstate 80, will range from
wet to slushy with limited visibility in wet snow... especially
this morning.

Precautionary/preparedness actions...

A Winter Weather Advisory for snow means periods of snow will
cause primarily travel difficulties. Be prepared for snow covered
and slick roads with limited visibilities. Slow down, and allow
extra time to reach your destination. Check the latest Road
conditions at wyoroad.Info or by dialing 5 1 1.